Terminal Aerodrome Forecast
Issued by NWS

Home | Current Version | Previous Version | Text Only | Print | Product List | Glossary Off
Versions: 1 2 3 4 5 6 7 8 9 10 11 12 13 14 15 16 17 18

000
FTUS42 KMHX 221739
TAFPGV
TAF
KPGV 221739Z 2218/2318 25007KT P6SM VCSH SCT050 BKN140
     FM230100 24006KT P6SM SCT015 BKN120
     FM230900 23005KT P6SM OVC015
     FM231400 22009KT P6SM OVC040
      AMD LTD TO CLD VIS AND WIND=

USA.gov is the U.S. government's official web portal to all federal, state and local government web resources and services.